Flugplatz Blomberg-Borkhausen

Für EDVF sind keine METAR/TAF Berichte vorhanden.
Es werden die Flugwettermeldungen vom Flugplatz Buckeburg Airport in 40 km Entfernung angezeigt.

Bericht für ETHB

vom 10.04. um 10:20 UTC

Wind 9 kt aus 70°

Sichtweite 6000 m

Temperatur 7.0°C

Taupunkt 4.0°C

Luftfeuchtigkeit 81%

Luftdruck 1015 hPa

ETHB 101020Z AUTO 07009KT 6000 // ////// 07/04 Q1015 ///
Keine Prognose (TAF) verfügbar.
Impressum